Time;durP1;ratioP1;P1;durP2;ratioP2;P2;SDS_P1;SDS_P2;PMS_P1;PMS_P2;Temp;Humidity;BMP_temperature;BMP_pressure;BME280_temperature;BME280_humidity;BME280_pressure;Samples;Min_cycle;Max_cycle;Signal;HPM_P1;HPM_P2
2024/02/15 00:02:09;;;;;;;;;;;;;;;22.40;33.42;101420.44;102695;1292;61335;-81
2024/02/15 00:04:36;;;;;;;;;;;;;;;22.40;33.42;101419.66;102745;1291;61846;-81
2024/02/15 00:07:02;;;;;;;;;;;;;;;22.40;33.41;101418.05;102675;1295;75551;-80
2024/02/15 00:09:27;;;;;;;;;;;;;;;22.40;33.40;101420.02;102828;1291;61338;-81
2024/02/15 00:11:53;;;;;;;;;;;;;;;22.40;33.44;101415.55;102826;1291;61391;-80
2024/02/15 00:14:19;;;;;;;;;;;;;;;22.41;33.49;101414.06;102778;1291;61327;-80
2024/02/15 00:16:45;;;;;;;;;;;;;;;22.42;33.49;101420.11;102721;1292;62355;-80
2024/02/15 00:19:11;;;;;;;;;;;;;;;22.41;33.33;101420.67;102783;1291;61373;-80
2024/02/15 00:21:37;;;;;;;;;;;;;;;22.42;33.45;101421.55;102809;1291;61452;-82
2024/02/15 00:24:02;;;;;;;;;;;;;;;22.42;33.31;101421.89;102750;1291;61368;-81
2024/02/15 00:26:28;;;;;;;;;;;;;;;22.43;33.34;101421.27;102780;1294;61337;-79
2024/02/15 00:28:53;;;;;;;;;;;;;;;22.42;33.26;101418.81;102787;1290;61503;-79
2024/02/15 00:31:19;;;;;;;;;;;;;;;22.43;33.41;101420.75;102761;1291;61327;-80
2024/02/15 00:33:44;;;;;;;;;;;;;;;22.43;33.37;101423.09;102749;1297;61414;-80
2024/02/15 00:36:10;;;;;;;;;;;;;;;22.43;33.33;101422.52;102686;1292;61417;-82
2024/02/15 00:38:35;;;;;;;;;;;;;;;22.43;33.30;101422.54;102820;1293;61415;-80
2024/02/15 00:41:01;;;;;;;;;;;;;;;22.44;33.29;101424.45;102840;1291;61381;-81
2024/02/15 00:43:26;;;;;;;;;;;;;;;22.44;33.29;101420.48;102787;1292;62406;-81
2024/02/15 00:45:52;;;;;;;;;;;;;;;22.45;33.28;101417.78;102825;1294;61814;-79
2024/02/15 00:48:17;;;;;;;;;;;;;;;22.45;33.22;101417.61;102763;1291;61329;-81
2024/02/15 00:50:43;;;;;;;;;;;;;;;22.45;33.27;101413.46;102744;1291;61502;-80
2024/02/15 00:53:08;;;;;;;;;;;;;;;22.45;33.30;101412.54;102684;1290;61392;-80
2024/02/15 00:55:34;;;;;;;;;;;;;;;22.46;33.19;101414.66;102804;1291;62479;-81
2024/02/15 00:58:00;;;;;;;;;;;;;;;22.45;33.32;101413.79;102702;1291;61417;-80
2024/02/15 01:00:26;;;;;;;;;;;;;;;22.46;33.26;101413.76;102710;1291;61448;-81
2024/02/15 01:02:52;;;;;;;;;;;;;;;22.46;33.22;101411.42;102791;1291;61361;-80
2024/02/15 01:05:18;;;;;;;;;;;;;;;22.47;33.35;101415.67;102738;1292;61436;-80
2024/02/15 01:07:44;;;;;;;;;;;;;;;22.47;33.23;101416.58;102681;1291;61330;-80
2024/02/15 01:10:09;;;;;;;;;;;;;;;22.47;33.19;101418.69;102779;1289;61541;-80
2024/02/15 01:12:35;;;;;;;;;;;;;;;22.47;33.24;101418.86;102777;1291;61395;-80
2024/02/15 01:15:01;;;;;;;;;;;;;;;22.47;33.28;101418.66;102831;1292;61420;-81
2024/02/15 01:17:26;;;;;;;;;;;;;;;22.48;33.22;101420.23;102760;1290;74472;-80
2024/02/15 01:19:53;;;;;;;;;;;;;;;22.48;33.17;101417.36;102796;1292;61404;-81
2024/02/15 01:22:18;;;;;;;;;;;;;;;22.48;33.11;101423.80;102799;1294;62311;-80
2024/02/15 01:24:45;;;;;;;;;;;;;;;22.49;33.13;101428.27;102766;1291;61421;-81
2024/02/15 01:27:11;;;;;;;;;;;;;;;22.49;33.10;101430.92;102760;1291;61378;-82
2024/02/15 01:29:36;;;;;;;;;;;;;;;22.50;33.05;101431.23;102797;1294;61429;-80
2024/02/15 01:32:02;;;;;;;;;;;;;;;22.50;32.98;101431.22;102739;1291;61438;-78
2024/02/15 01:34:28;;;;;;;;;;;;;;;22.50;33.08;101429.05;102831;1294;61483;-80
2024/02/15 01:36:54;;;;;;;;;;;;;;;22.51;33.14;101431.17;102703;1291;73428;-81
2024/02/15 01:39:19;;;;;;;;;;;;;;;22.50;33.15;101432.48;102843;1291;61409;-81
2024/02/15 01:41:50;;;;;;;;;;;;;;;22.50;33.03;101431.54;102682;1290;61392;-80
2024/02/15 01:44:17;;;;;;;;;;;;;;;22.51;33.13;101430.45;102779;1294;62370;-81
2024/02/15 01:46:43;;;;;;;;;;;;;;;22.51;33.13;101430.04;102852;1290;73466;-80
2024/02/15 01:49:09;;;;;;;;;;;;;;;22.52;33.03;101429.13;102791;1289;61516;-81
2024/02/15 01:51:36;;;;;;;;;;;;;;;22.52;33.12;101431.63;102808;1290;61387;-81
2024/02/15 01:54:02;;;;;;;;;;;;;;;22.53;33.12;101434.09;102733;1291;62618;-81
2024/02/15 01:56:28;;;;;;;;;;;;;;;22.53;33.00;101435.33;102869;1292;61472;-81
2024/02/15 01:58:55;;;;;;;;;;;;;;;22.53;33.05;101434.04;102926;1289;61854;-80
2024/02/15 02:01:21;;;;;;;;;;;;;;;22.53;33.01;101438.52;102691;1291;61868;-80
2024/02/15 02:03:46;;;;;;;;;;;;;;;22.54;32.96;101438.88;102742;1290;62525;-80
2024/02/15 02:06:12;;;;;;;;;;;;;;;22.54;32.99;101441.49;102823;1291;61410;-81
2024/02/15 02:08:37;;;;;;;;;;;;;;;22.54;32.92;101444.73;102819;1290;61391;-79
2024/02/15 02:11:03;;;;;;;;;;;;;;;22.55;32.94;101446.67;102697;1290;62459;-80
2024/02/15 02:13:29;;;;;;;;;;;;;;;22.55;33.00;101442.55;102958;1292;61453;-80
2024/02/15 02:15:56;;;;;;;;;;;;;;;22.56;32.96;101447.71;102715;1296;61403;-80
2024/02/15 02:18:24;;;;;;;;;;;;;;;22.55;32.94;101444.84;102959;1289;61307;-80
2024/02/15 02:20:49;;;;;;;;;;;;;;;22.56;32.98;101448.59;102579;1289;73564;-82
2024/02/15 02:23:16;;;;;;;;;;;;;;;22.56;32.98;101451.43;102741;1291;61439;-80
2024/02/15 02:25:44;;;;;;;;;;;;;;;22.57;33.01;101450.48;102788;1292;61387;-82
2024/02/15 02:28:10;;;;;;;;;;;;;;;22.57;32.97;101451.72;102720;1291;72618;-80
2024/02/15 02:30:35;;;;;;;;;;;;;;;22.57;32.90;101448.67;102881;1291;61747;-81
2024/02/15 02:33:01;;;;;;;;;;;;;;;22.58;32.85;101446.50;102890;1292;61794;-79
2024/02/15 02:35:27;;;;;;;;;;;;;;;22.57;32.86;101452.08;103010;1290;61384;-80
2024/02/15 02:37:53;;;;;;;;;;;;;;;22.58;32.79;101453.30;102717;1289;62348;-80
2024/02/15 02:40:18;;;;;;;;;;;;;;;22.58;32.87;101456.52;102865;1289;61408;-80
2024/02/15 02:42:51;;;;;;;;;;;;;;;22.58;32.92;101459.54;102732;1295;74327;-80
2024/02/15 02:45:19;;;;;;;;;;;;;;;22.59;32.96;101458.45;102823;1290;62141;-80
2024/02/15 02:47:51;;;;;;;;;;;;;;;22.59;32.83;101456.29;102833;1291;61381;-80
2024/02/15 02:50:17;;;;;;;;;;;;;;;22.59;32.78;101458.21;102865;1291;71835;-80
2024/02/15 02:52:43;;;;;;;;;;;;;;;22.59;32.90;101453.55;102858;1289;61415;-80
2024/02/15 02:55:09;;;;;;;;;;;;;;;22.60;32.82;101451.52;102892;1294;61387;-81
2024/02/15 02:57:37;;;;;;;;;;;;;;;22.60;32.81;101451.35;102863;1290;61371;-80
2024/02/15 03:00:07;;;;;;;;;;;;;;;22.60;32.83;101450.60;102827;1294;61338;-81
2024/02/15 03:02:36;;;;;;;;;;;;;;;22.61;32.85;101450.38;102794;1290;74388;-79
2024/02/15 03:05:03;;;;;;;;;;;;;;;22.61;32.76;101448.42;102855;1293;61395;-79
2024/02/15 03:07:28;;;;;;;;;;;;;;;22.62;32.82;101443.73;102776;1294;61277;-80
2024/02/15 03:09:54;;;;;;;;;;;;;;;22.62;32.90;101446.06;102820;1291;61410;-79
2024/02/15 03:12:19;;;;;;;;;;;;;;;22.62;32.79;101445.84;102725;1291;61433;-80
2024/02/15 03:14:45;;;;;;;;;;;;;;;22.63;32.80;101446.88;102839;1293;62469;-79
2024/02/15 03:17:11;;;;;;;;;;;;;;;22.62;32.88;101440.98;102812;1291;61480;-79
2024/02/15 03:19:36;;;;;;;;;;;;;;;22.63;32.79;101440.08;102748;1291;61340;-80
2024/02/15 03:22:02;;;;;;;;;;;;;;;22.63;32.76;101435.56;102781;1294;62332;-80
2024/02/15 03:24:27;;;;;;;;;;;;;;;22.63;32.77;101434.11;102770;1292;61437;-80
2024/02/15 03:26:55;;;;;;;;;;;;;;;22.63;32.68;101433.39;102749;1292;61567;-78
2024/02/15 03:29:22;;;;;;;;;;;;;;;22.64;32.72;101434.62;102655;1291;61395;-82
2024/02/15 03:31:49;;;;;;;;;;;;;;;22.64;32.77;101438.01;102672;1296;61265;-80
2024/02/15 03:34:15;;;;;;;;;;;;;;;22.64;32.81;101440.15;102681;1291;61486;-80
2024/02/15 03:36:41;;;;;;;;;;;;;;;22.64;32.85;101440.88;102710;1294;61453;-81
2024/02/15 03:39:08;;;;;;;;;;;;;;;22.65;32.81;101437.60;102769;1291;61414;-82
2024/02/15 03:41:33;;;;;;;;;;;;;;;22.65;32.70;101439.21;102646;1296;61805;-80
2024/02/15 03:44:00;;;;;;;;;;;;;;;22.65;32.73;101440.27;102680;1295;61408;-81
2024/02/15 03:46:25;;;;;;;;;;;;;;;22.65;32.75;101444.02;102680;1291;61485;-80
2024/02/15 03:48:51;;;;;;;;;;;;;;;22.65;32.78;101444.73;102722;1291;62633;-80
2024/02/15 03:51:18;;;;;;;;;;;;;;;22.66;32.70;101442.74;102721;1291;61430;-80
2024/02/15 03:53:44;;;;;;;;;;;;;;;22.66;32.74;101446.65;102713;1291;73044;-79
2024/02/15 03:56:09;;;;;;;;;;;;;;;22.66;32.63;101445.02;102684;1291;62355;-80
2024/02/15 03:58:36;;;;;;;;;;;;;;;22.67;32.59;101444.83;102680;1291;61587;-79
2024/02/15 04:01:06;;;;;;;;;;;;;;;22.66;32.62;101447.71;102751;1292;62243;-80
2024/02/15 04:03:32;;;;;;;;;;;;;;;22.67;32.67;101448.05;102686;1294;72481;-79
2024/02/15 04:05:57;;;;;;;;;;;;;;;22.67;32.64;101450.92;102746;1291;62356;-80
2024/02/15 04:08:23;;;;;;;;;;;;;;;22.67;32.57;101455.02;102753;1292;61396;-80
2024/02/15 04:10:49;;;;;;;;;;;;;;;22.67;32.67;101451.95;102389;1289;663247;-80
2024/02/15 04:13:14;;;;;;;;;;;;;;;22.67;32.75;101450.52;102781;1291;61424;-80
2024/02/15 04:15:41;;;;;;;;;;;;;;;22.68;32.57;101450.11;102786;1294;62750;-81
2024/02/15 04:18:08;;;;;;;;;;;;;;;22.68;32.64;101454.42;102833;1291;61315;-80
2024/02/15 04:20:33;;;;;;;;;;;;;;;22.67;32.65;101454.80;102693;1291;61395;-80
2024/02/15 04:22:59;;;;;;;;;;;;;;;22.68;32.66;101459.79;102812;1291;62632;-78
2024/02/15 04:25:27;;;;;;;;;;;;;;;22.68;32.51;101459.23;102749;1291;71527;-81
2024/02/15 04:27:53;;;;;;;;;;;;;;;22.68;32.62;101462.14;102710;1291;75489;-80
2024/02/15 04:30:19;;;;;;;;;;;;;;;22.69;32.69;101462.80;102778;1292;61398;-79
2024/02/15 04:32:46;;;;;;;;;;;;;;;22.68;32.56;101466.41;102793;1290;61868;-80
2024/02/15 04:35:12;;;;;;;;;;;;;;;22.68;32.46;101467.48;102742;1297;61400;-81
2024/02/15 04:37:38;;;;;;;;;;;;;;;22.68;32.55;101469.09;102707;1292;61868;-81
2024/02/15 04:40:10;;;;;;;;;;;;;;;22.69;32.54;101467.07;102832;1290;61428;-80
2024/02/15 04:42:39;;;;;;;;;;;;;;;22.69;32.58;101466.02;102787;1291;61364;-79
2024/02/15 04:45:08;;;;;;;;;;;;;;;22.69;32.53;101467.42;102803;1297;73519;-79
2024/02/15 04:47:34;;;;;;;;;;;;;;;22.69;32.44;101467.05;102760;1291;74435;-79
2024/02/15 04:50:00;;;;;;;;;;;;;;;22.70;32.63;101472.96;102789;1292;61432;-79
2024/02/15 04:52:26;;;;;;;;;;;;;;;22.70;32.53;101472.95;102717;1292;62000;-79
2024/02/15 04:54:54;;;;;;;;;;;;;;;22.70;32.47;101475.42;102768;1291;61283;-78
2024/02/15 04:57:21;;;;;;;;;;;;;;;22.71;32.55;101473.20;102754;1292;75475;-80
2024/02/15 04:59:48;;;;;;;;;;;;;;;22.73;32.60;101474.34;102907;1291;61315;-78
2024/02/15 05:02:14;;;;;;;;;;;;;;;22.74;32.41;101478.39;102801;1292;61403;-79
2024/02/15 05:04:42;;;;;;;;;;;;;;;22.74;32.43;101478.73;102663;1291;61395;-81
2024/02/15 05:07:08;;;;;;;;;;;;;;;22.75;32.59;101485.51;102869;1291;74506;-79
2024/02/15 05:09:34;;;;;;;;;;;;;;;22.75;32.48;101488.34;102771;1297;62506;-79
2024/02/15 05:12:02;;;;;;;;;;;;;;;22.76;32.48;101488.71;102987;1291;61315;-79
2024/02/15 05:14:28;;;;;;;;;;;;;;;22.77;32.34;101489.71;103006;1296;72517;-80
2024/02/15 05:16:53;;;;;;;;;;;;;;;22.76;32.39;101491.02;103172;1292;62531;-79
2024/02/15 05:19:19;;;;;;;;;;;;;;;22.76;32.35;101492.06;102881;1291;61353;-78
2024/02/15 05:21:45;;;;;;;;;;;;;;;22.76;32.26;101498.55;102911;1290;61891;-79
2024/02/15 05:24:14;;;;;;;;;;;;;;;22.75;32.25;101497.17;102816;1297;61409;-82
2024/02/15 05:26:42;;;;;;;;;;;;;;;22.73;32.14;101500.17;103218;1291;61256;-80
2024/02/15 05:29:08;;;;;;;;;;;;;;;22.70;32.07;101503.63;103110;1291;61405;-79
2024/02/15 05:31:37;;;;;;;;;;;;;;;22.67;32.01;101508.50;103081;1293;61381;-79
2024/02/15 05:34:04;;;;;;;;;;;;;;;22.64;32.00;101509.25;103306;1294;72233;-79
2024/02/15 05:36:30;;;;;;;;;;;;;;;22.60;31.84;101514.81;102941;1297;63496;-80
2024/02/15 05:38:57;;;;;;;;;;;;;;;22.57;31.73;101517.18;103046;1291;62565;-77
2024/02/15 05:41:22;;;;;;;;;;;;;;;22.51;31.57;101522.43;102943;1296;61592;-80
2024/02/15 05:43:48;;;;;;;;;;;;;;;22.44;31.65;101524.52;103125;1291;61896;-80
2024/02/15 05:46:13;;;;;;;;;;;;;;;22.37;31.57;101525.33;103563;1291;61464;-80
2024/02/15 05:48:39;;;;;;;;;;;;;;;22.29;31.42;101532.98;103521;1292;61267;-81
2024/02/15 05:51:05;;;;;;;;;;;;;;;22.21;31.39;101538.71;103676;1292;61450;-81
2024/02/15 05:53:37;;;;;;;;;;;;;;;22.15;31.42;101541.27;103992;1290;62327;-81
2024/02/15 05:56:06;;;;;;;;;;;;;;;22.09;31.35;101545.24;103700;1290;72440;-80
2024/02/15 05:58:32;;;;;;;;;;;;;;;22.01;31.02;101547.88;103914;1291;75513;-80
2024/02/15 06:01:01;;;;;;;;;;;;;;;21.97;31.31;101552.30;104511;1294;61277;-80
2024/02/15 06:03:34;;;;;;;;;;;;;;;21.97;31.43;101556.23;104225;1290;61146;-80
2024/02/15 06:06:01;;;;;;;;;;;;;;;21.97;31.52;101555.30;104567;1291;61206;-80
2024/02/15 06:08:29;;;;;;;;;;;;;;;21.98;31.58;101555.80;105550;1290;75272;-79
2024/02/15 06:10:55;;;;;;;;;;;;;;;22.00;31.64;101555.84;104435;1289;61283;-79
2024/02/15 06:13:20;;;;;;;;;;;;;;;22.02;31.62;101562.70;103933;1294;61321;-79
2024/02/15 06:15:46;;;;;;;;;;;;;;;22.04;31.69;101561.67;104256;1294;61397;-80
2024/02/15 06:18:14;;;;;;;;;;;;;;;22.05;31.45;101561.27;104265;1290;61416;-80
2024/02/15 06:20:40;;;;;;;;;;;;;;;22.04;31.38;101561.48;103981;1291;61411;-79
2024/02/15 06:23:07;;;;;;;;;;;;;;;22.03;31.34;101564.80;104314;1291;61885;-79
2024/02/15 06:25:33;;;;;;;;;;;;;;;22.02;31.29;101564.14;104460;1294;63331;-79
2024/02/15 06:28:02;;;;;;;;;;;;;;;22.01;31.26;101566.35;104530;1293;61138;-79
2024/02/15 06:41:28;;;;;;;;;;;;;;;21.85;30.98;101583.11;104074;1290;61286;-80
2024/02/15 06:43:55;;;;;;;;;;;;;;;21.83;31.00;101581.47;103971;1289;62127;-80
2024/02/15 06:46:20;;;;;;;;;;;;;;;21.80;31.12;101582.15;103930;1292;61416;-81
2024/02/15 06:48:46;;;;;;;;;;;;;;;21.78;30.90;101578.71;104051;1292;62082;-82
2024/02/15 06:51:14;;;;;;;;;;;;;;;21.75;30.81;101572.05;104040;1291;61381;-80
2024/02/15 06:53:39;;;;;;;;;;;;;;;21.73;30.89;101573.80;105985;1289;58987;-79
2024/02/15 06:56:05;;;;;;;;;;;;;;;21.74;30.72;101572.83;104827;1291;60140;-79
2024/02/15 06:58:31;;;;;;;;;;;;;;;21.76;30.88;101574.34;104301;1291;61308;-80
2024/02/15 07:00:56;;;;;;;;;;;;;;;21.78;30.83;101575.88;104217;1289;60613;-79
2024/02/15 07:03:23;;;;;;;;;;;;;;;21.78;30.81;101572.98;104276;1290;61267;-79
2024/02/15 07:05:49;;;;;;;;;;;;;;;21.79;30.85;101576.30;103520;1294;62082;-79
2024/02/15 07:08:15;;;;;;;;;;;;;;;21.82;30.82;101577.17;104171;1293;61324;-79
2024/02/15 07:10:40;;;;;;;;;;;;;;;21.86;30.85;101576.02;104284;1290;61363;-79
2024/02/15 07:13:06;;;;;;;;;;;;;;;21.92;30.73;101576.95;104333;1290;61260;-80
2024/02/15 07:15:37;;;;;;;;;;;;;;;21.97;30.99;101575.05;104586;1290;61332;-79
2024/02/15 07:18:06;;;;;;;;;;;;;;;22.01;30.83;101572.06;104408;1290;72534;-79
2024/02/15 07:20:32;;;;;;;;;;;;;;;22.06;31.01;101575.55;104210;1290;74890;-79
2024/02/15 07:22:59;;;;;;;;;;;;;;;22.08;30.99;101567.88;105763;1289;59697;-79
2024/02/15 07:25:25;;;;;;;;;;;;;;;22.10;30.96;101568.97;104124;1290;61266;-79
2024/02/15 07:27:50;;;;;;;;;;;;;;;22.12;30.94;101566.70;104020;1291;61321;-80
2024/02/15 07:30:16;;;;;;;;;;;;;;;22.15;30.89;101563.88;103971;1292;61344;-80
2024/02/15 07:32:42;;;;;;;;;;;;;;;22.15;30.88;101564.56;104057;1291;61351;-80
2024/02/15 07:35:08;;;;;;;;;;;;;;;22.12;30.86;101565.28;103935;1290;62438;-80
2024/02/15 07:37:36;;;;;;;;;;;;;;;22.09;30.71;101564.91;104328;1291;61417;-79
2024/02/15 07:40:03;;;;;;;;;;;;;;;22.05;30.69;101566.09;103778;1294;72490;-79
2024/02/15 07:42:30;;;;;;;;;;;;;;;21.99;30.75;101565.75;104081;1292;74460;-78
2024/02/15 07:44:55;;;;;;;;;;;;;;;21.93;30.64;101567.90;103953;1290;61333;-80
2024/02/15 07:47:24;;;;;;;;;;;;;;;21.89;30.62;101568.89;103997;1291;61384;-80
2024/02/15 07:49:50;;;;;;;;;;;;;;;21.86;30.43;101574.83;103944;1290;72513;-81
2024/02/15 07:52:15;;;;;;;;;;;;;;;21.84;30.42;101576.73;104164;1294;61396;-81
2024/02/15 07:54:41;;;;;;;;;;;;;;;21.82;30.33;101571.65;104506;1292;61296;-81
2024/02/15 07:57:07;;;;;;;;;;;;;;;21.82;30.30;101571.09;104132;1290;61377;-80
2024/02/15 07:59:32;;;;;;;;;;;;;;;21.81;30.34;101569.90;104395;1291;61516;-79
2024/02/15 08:01:58;;;;;;;;;;;;;;;21.80;30.27;101566.76;104029;1290;62508;-81
2024/02/15 08:04:24;;;;;;;;;;;;;;;21.79;30.27;101564.48;103966;1290;74383;-81
2024/02/15 08:06:53;;;;;;;;;;;;;;;21.78;30.26;101565.60;104023;1292;61397;-82
2024/02/15 08:09:21;;;;;;;;;;;;;;;21.77;30.10;101568.00;103683;1290;63873;-80
2024/02/15 08:11:48;;;;;;;;;;;;;;;21.76;30.22;101568.27;104166;1293;73465;-81
2024/02/15 08:14:14;;;;;;;;;;;;;;;21.75;30.16;101569.38;103797;1293;61317;-78
2024/02/15 08:16:40;;;;;;;;;;;;;;;21.78;30.19;101570.30;103787;1295;63390;-79
2024/02/15 08:19:07;;;;;;;;;;;;;;;21.80;30.03;101564.98;103784;1290;61279;-80
2024/02/15 08:21:33;;;;;;;;;;;;;;;21.84;30.17;101571.33;103989;1290;61899;-79
2024/02/15 08:24:05;;;;;;;;;;;;;;;21.89;30.05;101569.60;104194;1292;61275;-80
2024/02/15 08:26:40;;;;;;;;;;;;;;;21.93;29.96;101565.55;106153;1289;59700;-79
2024/02/15 08:29:07;;;;;;;;;;;;;;;21.98;30.06;101564.05;104464;1291;60424;-79
2024/02/15 08:31:33;;;;;;;;;;;;;;;22.02;30.09;101561.65;104542;1294;61456;-81
2024/02/15 08:34:00;;;;;;;;;;;;;;;22.06;29.97;101557.80;104126;1289;61309;-80
2024/02/15 08:36:26;;;;;;;;;;;;;;;22.09;29.98;101559.04;104399;1291;61344;-81
2024/02/15 08:38:51;;;;;;;;;;;;;;;22.13;30.04;101560.03;104483;1289;59504;-82
2024/02/15 08:41:20;;;;;;;;;;;;;;;22.16;30.09;101561.08;104404;1291;61757;-80
2024/02/15 08:43:48;;;;;;;;;;;;;;;22.19;29.83;101562.14;105304;1290;74689;-78
2024/02/15 08:46:14;;;;;;;;;;;;;;;22.22;29.89;101563.55;104335;1291;61430;-79
2024/02/15 08:48:40;;;;;;;;;;;;;;;22.25;29.94;101566.38;104303;1288;61567;-80
2024/02/15 08:51:08;;;;;;;;;;;;;;;22.29;29.90;101563.34;104414;1291;61301;-79
2024/02/15 08:53:36;;;;;;;;;;;;;;;22.32;29.85;101563.16;106111;1294;74557;-79
2024/02/15 08:56:02;;;;;;;;;;;;;;;22.34;29.86;101565.33;106026;1292;59114;-80
2024/02/15 08:58:29;;;;;;;;;;;;;;;22.34;29.93;101571.79;105609;1290;59598;-79
2024/02/15 09:00:56;;;;;;;;;;;;;;;22.32;29.86;101574.39;104105;1289;72359;-80
2024/02/15 09:03:21;;;;;;;;;;;;;;;22.28;29.70;101571.80;104131;1292;61381;-80
2024/02/15 09:05:48;;;;;;;;;;;;;;;22.21;29.71;101571.85;104251;1290;61324;-80
2024/02/15 09:08:14;;;;;;;;;;;;;;;22.15;29.60;101569.58;104558;1294;61342;-80
2024/02/15 09:10:39;;;;;;;;;;;;;;;22.11;29.58;101569.50;104829;1291;61253;-80
2024/02/15 09:13:06;;;;;;;;;;;;;;;22.07;29.58;101570.60;103989;1294;61297;-80
2024/02/15 09:15:32;;;;;;;;;;;;;;;22.04;29.59;101565.29;103995;1290;61391;-80
2024/02/15 09:17:57;;;;;;;;;;;;;;;22.00;29.47;101562.80;103825;1292;61371;-81
2024/02/15 09:20:27;;;;;;;;;;;;;;;21.96;29.54;101560.22;103955;1291;61272;-80
2024/02/15 09:22:56;;;;;;;;;;;;;;;21.92;29.46;101557.21;104096;1294;72563;-81
2024/02/15 09:25:25;;;;;;;;;;;;;;;21.88;29.53;101549.94;103796;1293;75100;-81
2024/02/15 09:27:50;;;;;;;;;;;;;;;21.85;29.44;101548.02;103930;1289;61375;-81
2024/02/15 09:30:16;;;;;;;;;;;;;;;21.82;29.58;101554.42;103783;1295;61447;-81
2024/02/15 09:32:42;;;;;;;;;;;;;;;21.80;29.45;101550.67;103874;1295;61286;-82
2024/02/15 09:35:08;;;;;;;;;;;;;;;21.75;29.50;101544.29;103937;1293;61298;-80
2024/02/15 09:37:34;;;;;;;;;;;;;;;21.73;29.50;101544.27;103911;1294;61272;-80
2024/02/15 09:40:04;;;;;;;;;;;;;;;21.72;29.38;101548.10;104228;1291;61389;-80
2024/02/15 09:42:30;;;;;;;;;;;;;;;21.70;29.43;101544.40;104306;1294;72498;-80
2024/02/15 09:44:55;;;;;;;;;;;;;;;21.69;29.47;101537.33;104564;1294;61390;-81
2024/02/15 09:47:21;;;;;;;;;;;;;;;21.69;29.31;101533.41;104478;1290;61365;-81
2024/02/15 09:49:47;;;;;;;;;;;;;;;21.69;29.35;101529.84;104833;1289;61453;-80
2024/02/15 09:52:15;;;;;;;;;;;;;;;21.68;29.30;101532.92;104654;1293;61387;-80
2024/02/15 09:54:43;;;;;;;;;;;;;;;21.65;29.38;101527.71;104774;1289;59743;-81
2024/02/15 09:57:10;;;;;;;;;;;;;;;21.63;29.56;101527.65;104981;1289;59757;-81
2024/02/15 09:59:36;;;;;;;;;;;;;;;21.64;29.61;101518.70;105130;1289;60338;-81
2024/02/15 10:02:02;;;;;;;;;;;;;;;21.63;29.54;101518.77;104377;1292;61422;-80
2024/02/15 10:04:27;;;;;;;;;;;;;;;21.59;29.59;101515.90;104516;1292;61391;-81
2024/02/15 10:06:53;;;;;;;;;;;;;;;21.58;29.65;101514.16;104819;1289;60485;-82
2024/02/15 10:09:31;;;;;;;;;;;;;;;21.58;29.48;101512.77;104953;1294;59663;-80
2024/02/15 10:11:57;;;;;;;;;;;;;;;21.56;29.54;101510.58;105875;1289;72393;-79
2024/02/15 10:14:23;;;;;;;;;;;;;;;21.54;29.53;101507.07;105937;1290;59236;-80
2024/02/15 10:16:48;;;;;;;;;;;;;;;21.56;29.57;101510.34;105748;1290;59287;-80
2024/02/15 10:19:15;;;;;;;;;;;;;;;21.57;29.75;101509.24;106017;1289;59656;-79
2024/02/15 10:21:41;;;;;;;;;;;;;;;21.54;29.66;101494.52;105795;1290;59428;-79
2024/02/15 10:24:07;;;;;;;;;;;;;;;21.55;29.64;101492.49;105612;1295;59605;-79
2024/02/15 10:26:34;;;;;;;;;;;;;;;21.57;29.70;101485.02;105963;1294;59342;-80
2024/02/15 10:29:10;;;;;;;;;;;;;;;21.59;29.70;101485.27;105792;1289;59486;-80
2024/02/15 10:31:41;;;;;;;;;;;;;;;21.60;29.72;101483.97;105847;1292;72451;-80
2024/02/15 10:34:07;;;;;;;;;;;;;;;21.61;29.89;101480.88;105995;1292;74242;-80
2024/02/15 10:36:34;;;;;;;;;;;;;;;21.62;29.68;101472.94;106007;1291;59400;-79
2024/02/15 10:39:23;;;;;;;;;;;;;;;21.64;29.83;101472.84;105931;1289;59952;-81
2024/02/15 10:41:54;;;;;;;;;;;;;;;21.64;29.66;101470.14;106019;1290;72357;-80
2024/02/15 10:44:23;;;;;;;;;;;;;;;21.65;29.69;101467.74;105873;1290;75266;-79
2024/02/15 10:46:52;;;;;;;;;;;;;;;21.65;29.69;101467.34;106055;1289;59857;-79
2024/02/15 10:49:27;;;;;;;;;;;;;;;21.66;29.65;101466.40;105711;1292;61184;-78
2024/02/15 10:51:56;;;;;;;;;;;;;;;21.67;29.61;101464.73;106028;1291;72644;-80
2024/02/15 10:54:34;;;;;;;;;;;;;;;21.67;29.56;101462.98;106071;1289;75462;-81
2024/02/15 10:57:03;;;;;;;;;;;;;;;21.66;29.49;101463.55;106007;1288;59725;-79
2024/02/15 10:59:29;;;;;;;;;;;;;;;21.68;29.44;101458.23;105900;1289;60142;-80
2024/02/15 11:01:57;;;;;;;;;;;;;;;21.69;29.44;101455.30;105678;1292;59797;-79
2024/02/15 11:04:32;;;;;;;;;;;;;;;21.69;29.56;101453.67;105844;1290;77151;-83
2024/02/15 11:06:58;;;;;;;;;;;;;;;21.61;29.36;101453.65;104809;1290;63434;-80
2024/02/15 11:09:24;;;;;;;;;;;;;;;21.45;29.33;101455.14;105788;1291;59326;-80
2024/02/15 11:11:53;;;;;;;;;;;;;;;21.36;29.43;101449.80;105929;1290;72343;-80
2024/02/15 11:14:29;;;;;;;;;;;;;;;21.33;29.44;101449.42;105862;1290;59106;-80
2024/02/15 11:16:56;;;;;;;;;;;;;;;21.31;29.49;101450.27;106023;1289;59134;-80
2024/02/15 11:19:33;;;;;;;;;;;;;;;21.31;29.37;101450.32;105854;1290;60094;-82
2024/02/15 11:22:03;;;;;;;;;;;;;;;21.34;29.55;101442.44;105626;1291;72659;-81
2024/02/15 11:24:29;;;;;;;;;;;;;;;21.36;29.45;101445.52;105785;1291;75423;-80
2024/02/15 11:26:58;;;;;;;;;;;;;;;21.38;29.52;101437.33;105761;1290;61519;-80
2024/02/15 11:29:43;;;;;;;;;;;;;;;21.41;29.69;101435.86;105941;1288;60222;-80
2024/02/15 11:32:08;;;;;;;;;;;;;;;21.43;29.67;101434.83;105975;1290;73686;-80
2024/02/15 11:34:44;;;;;;;;;;;;;;;21.45;29.88;101430.47;105707;1291;60057;-80
2024/02/15 11:37:09;;;;;;;;;;;;;;;21.42;29.69;101432.19;105745;1292;59986;-80
2024/02/15 11:39:43;;;;;;;;;;;;;;;21.40;29.70;101432.17;105768;1291;59780;-80
2024/02/15 11:42:42;;;;;;;;;;;;;;;21.35;29.63;101435.17;104130;1291;72474;-80
2024/02/15 11:45:09;;;;;;;;;;;;;;;21.30;29.78;101431.23;103937;1297;74455;-79
2024/02/15 11:47:39;;;;;;;;;;;;;;;21.32;29.94;101431.41;103976;1297;60559;-80
2024/02/15 11:50:14;;;;;;;;;;;;;;;21.35;29.98;101423.15;104212;1297;61199;-79
2024/02/15 11:52:41;;;;;;;;;;;;;;;21.36;30.00;101420.77;104205;1300;72429;-80
2024/02/15 11:55:11;;;;;;;;;;;;;;;21.33;30.01;101422.23;103844;1298;75919;-79
2024/02/15 11:57:47;;;;;;;;;;;;;;;21.28;30.12;101418.45;103817;1300;61312;-79
2024/02/15 12:19:46;;;;;;;;;;;;;;;21.23;30.24;101405.48;104680;1296;61266;-81
2024/02/15 12:22:12;;;;;;;;;;;;;;;21.26;30.34;101407.81;104705;1291;62608;-80
2024/02/15 12:24:37;;;;;;;;;;;;;;;21.29;30.17;101406.52;104811;1289;60125;-79
2024/02/15 12:27:03;;;;;;;;;;;;;;;21.32;30.35;101406.55;104895;1291;60297;-80
2024/02/15 12:29:29;;;;;;;;;;;;;;;21.34;30.30;101409.81;105158;1290;59832;-81
2024/02/15 12:31:54;;;;;;;;;;;;;;;21.35;30.16;101410.98;105044;1291;61395;-80
2024/02/15 12:34:20;;;;;;;;;;;;;;;21.36;29.97;101404.84;104807;1289;61486;-80
2024/02/15 12:36:49;;;;;;;;;;;;;;;21.38;30.20;101407.43;104533;1293;61406;-81
2024/02/15 12:39:16;;;;;;;;;;;;;;;21.39;30.19;101401.63;105660;1291;74639;-81
2024/02/15 12:41:47;;;;;;;;;;;;;;;21.40;30.11;101400.66;105732;1290;60607;-81
2024/02/15 12:44:15;;;;;;;;;;;;;;;21.41;30.01;101399.14;105717;1290;60451;-79
2024/02/15 12:46:41;;;;;;;;;;;;;;;21.41;29.93;101399.86;105588;1289;72410;-79
2024/02/15 12:49:08;;;;;;;;;;;;;;;21.36;29.78;101394.27;105623;1289;60114;-80
2024/02/15 12:51:33;;;;;;;;;;;;;;;21.38;30.04;101394.00;105681;1291;59838;-81
2024/02/15 12:54:11;;;;;;;;;;;;;;;21.40;30.03;101394.75;105666;1290;60786;-81
2024/02/15 12:56:36;;;;;;;;;;;;;;;21.39;29.97;101394.27;105808;1289;73292;-81